sensor_id;sensor_type;location;lat;lon;timestamp;pressure;altitude;pressure_sealevel;temperature;humidity
60371;BME280;48550;40.588;49.684;2022-09-27T00:01:07;101850.91;;;17.36;100.00
60371;BME280;48550;40.588;49.684;2022-09-27T00:03:34;101846.25;;;17.31;100.00
60371;BME280;48550;40.588;49.684;2022-09-27T00:06:15;101841.63;;;17.32;100.00
60371;BME280;48550;40.588;49.684;2022-09-27T00:08:44;101831.03;;;17.30;100.00
60371;BME280;48550;40.588;49.684;2022-09-27T00:13:44;101836.13;;;17.27;100.00
60371;BME280;48550;40.588;49.684;2022-09-27T00:16:10;101840.81;;;17.31;100.00
60371;BME280;48550;40.588;49.684;2022-09-27T00:18:36;101829.72;;;17.33;100.00
60371;BME280;48550;40.588;49.684;2022-09-27T00:21:07;101829.78;;;17.38;100.00
60371;BME280;48550;40.588;49.684;2022-09-27T00:23:33;101826.81;;;17.39;100.00
60371;BME280;48550;40.588;49.684;2022-09-27T00:25:59;101819.75;;;17.38;100.00
60371;BME280;48550;40.588;49.684;2022-09-27T00:28:26;101830.34;;;17.40;100.00
60371;BME280;48550;40.588;49.684;2022-09-27T00:30:52;101826.81;;;17.39;100.00
60371;BME280;48550;40.588;49.684;2022-09-27T00:33:18;101829.28;;;17.41;100.00
60371;BME280;48550;40.588;49.684;2022-09-27T00:35:44;101837.09;;;17.37;100.00
60371;BME280;48550;40.588;49.684;2022-09-27T00:38:11;101826.75;;;17.34;100.00
60371;BME280;48550;40.588;49.684;2022-09-27T00:40:37;101823.22;;;17.34;100.00
60371;BME280;48550;40.588;49.684;2022-09-27T00:43:23;101829.72;;;17.33;100.00
60371;BME280;48550;40.588;49.684;2022-09-27T00:45:56;101824.53;;;17.31;100.00
60371;BME280;48550;40.588;49.684;2022-09-27T00:48:28;101823.16;;;17.29;100.00
60371;BME280;48550;40.588;49.684;2022-09-27T00:50:58;101824.78;;;17.30;100.00
60371;BME280;48550;40.588;49.684;2022-09-27T00:53:37;101819.59;;;17.28;100.00
60371;BME280;48550;40.588;49.684;2022-09-27T00:56:09;101815.25;;;17.27;100.00
60371;BME280;48550;40.588;49.684;2022-09-27T00:58:42;101819.28;;;17.25;100.00
60371;BME280;48550;40.588;49.684;2022-09-27T01:01:10;101818.97;;;17.21;100.00
60371;BME280;48550;40.588;49.684;2022-09-27T01:04:00;101823.25;;;17.17;100.00
60371;BME280;48550;40.588;49.684;2022-09-27T01:06:29;101822.94;;;17.13;100.00
60371;BME280;48550;40.588;49.684;2022-09-27T01:08:55;101824.00;;;17.12;100.00
60371;BME280;48550;40.588;49.684;2022-09-27T01:20:17;101815.38;;;17.15;100.00
60371;BME280;48550;40.588;49.684;2022-09-27T01:26:08;101807.63;;;17.24;100.00
60371;BME280;48550;40.588;49.684;2022-09-27T01:31:31;101815.31;;;17.32;100.00
60371;BME280;48550;40.588;49.684;2022-09-27T01:34:22;101816.47;;;17.36;100.00
60371;BME280;48550;40.588;49.684;2022-09-27T01:39:56;101821.38;;;17.39;100.00
60371;BME280;48550;40.588;49.684;2022-09-27T01:45:09;101810.34;;;17.46;100.00
60371;BME280;48550;40.588;49.684;2022-09-27T01:47:48;101816.53;;;17.41;100.00
60371;BME280;48550;40.588;49.684;2022-09-27T01:52:58;101823.53;;;17.37;100.00
60371;BME280;48550;40.588;49.684;2022-09-27T01:55:31;101816.72;;;17.35;100.00
60371;BME280;48550;40.588;49.684;2022-09-27T01:58:05;101820.75;;;17.32;100.00
60371;BME280;48550;40.588;49.684;2022-09-27T02:00:36;101811.22;;;17.30;100.00
60371;BME280;48550;40.588;49.684;2022-09-27T02:03:11;101817.97;;;17.27;100.00
60371;BME280;48550;40.588;49.684;2022-09-27T02:05:49;101820.44;;;17.29;100.00
60371;BME280;48550;40.588;49.684;2022-09-27T02:11:01;101830.78;;;17.32;100.00
60371;BME280;48550;40.588;49.684;2022-09-27T02:13:39;101830.47;;;17.28;100.00
60371;BME280;48550;40.588;49.684;2022-09-27T02:21:43;101815.50;;;17.26;100.00
60371;BME280;48550;40.588;49.684;2022-09-27T02:24:13;101824.47;;;17.26;100.00
60371;BME280;48550;40.588;49.684;2022-09-27T02:26:44;101822.25;;;17.23;100.00
60371;BME280;48550;40.588;49.684;2022-09-27T02:29:32;101820.34;;;17.24;100.00
60371;BME280;48550;40.588;49.684;2022-09-27T02:31:58;101822.25;;;17.23;100.00
60371;BME280;48550;40.588;49.684;2022-09-27T02:34:30;101815.69;;;17.19;100.00
60371;BME280;48550;40.588;49.684;2022-09-27T02:36:59;101819.78;;;17.22;100.00
60371;BME280;48550;40.588;49.684;2022-09-27T02:39:26;101824.66;;;17.20;100.00
60371;BME280;48550;40.588;49.684;2022-09-27T02:41:52;101818.91;;;17.16;100.00
60371;BME280;48550;40.588;49.684;2022-09-27T02:44:23;101818.91;;;17.16;100.00
60371;BME280;48550;40.588;49.684;2022-09-27T02:53:01;101815.25;;;17.27;100.00
60371;BME280;48550;40.588;49.684;2022-09-27T02:56:09;101813.69;;;17.31;100.00
60371;BME280;48550;40.588;49.684;2022-09-27T02:58:47;101824.78;;;17.30;100.00
60371;BME280;48550;40.588;49.684;2022-09-27T03:01:39;101821.81;;;17.31;100.00
60371;BME280;48550;40.588;49.684;2022-09-27T03:04:16;101821.88;;;17.36;100.00
60371;BME280;48550;40.588;49.684;2022-09-27T03:06:46;101808.19;;;17.48;100.00
60371;BME280;48550;40.588;49.684;2022-09-27T03:09:20;101810.41;;;17.51;100.00
60371;BME280;48550;40.588;49.684;2022-09-27T03:11:46;101815.66;;;17.58;100.00
60371;BME280;48550;40.588;49.684;2022-09-27T03:14:13;101811.44;;;17.67;100.00
60371;BME280;48550;40.588;49.684;2022-09-27T03:16:39;101822.44;;;17.77;100.00
60371;BME280;48550;40.588;49.684;2022-09-27T03:19:05;101818.28;;;17.91;100.00
60371;BME280;48550;40.588;49.684;2022-09-27T03:21:30;101821.34;;;18.00;100.00
60371;BME280;48550;40.588;49.684;2022-09-27T03:23:56;101820.63;;;18.09;100.00
60371;BME280;48550;40.588;49.684;2022-09-27T03:26:22;101817.50;;;18.23;100.00
60371;BME280;48550;40.588;49.684;2022-09-27T03:28:48;101814.13;;;18.37;100.00
60371;BME280;48550;40.588;49.684;2022-09-27T03:31:13;101816.16;;;18.52;100.00
60371;BME280;48550;40.588;49.684;2022-09-27T03:33:39;101800.88;;;18.73;100.00
60371;BME280;48550;40.588;49.684;2022-09-27T03:36:06;101807.72;;;18.81;100.00
60371;BME280;48550;40.588;49.684;2022-09-27T03:38:32;101807.75;;;18.86;100.00
60371;BME280;48550;40.588;49.684;2022-09-27T03:40:57;101808.38;;;18.98;100.00
60371;BME280;48550;40.588;49.684;2022-09-27T03:43:24;101801.06;;;19.03;100.00
60371;BME280;48550;40.588;49.684;2022-09-27T03:45:50;101798.19;;;19.20;100.00
60371;BME280;48550;40.588;49.684;2022-09-27T03:48:15;101797.47;;;19.35;100.00
60371;BME280;48550;40.588;49.684;2022-09-27T03:50:41;101792.09;;;19.50;100.00
60371;BME280;48550;40.588;49.684;2022-09-27T03:53:07;101788.06;;;19.58;100.00
60371;BME280;48550;40.588;49.684;2022-09-27T03:55:33;101784.28;;;19.69;100.00
60371;BME280;48550;40.588;49.684;2022-09-27T03:58:00;101784.31;;;19.79;100.00
60371;BME280;48550;40.588;49.684;2022-09-27T04:00:26;101779.69;;;19.80;100.00
60371;BME280;48550;40.588;49.684;2022-09-27T04:02:51;101776.41;;;19.78;100.00
60371;BME280;48550;40.588;49.684;2022-09-27T04:05:17;101772.06;;;19.82;100.00
60371;BME280;48550;40.588;49.684;2022-09-27T04:07:47;101775.34;;;19.94;100.00
60371;BME280;48550;40.588;49.684;2022-09-27T04:10:14;101777.81;;;19.95;100.00
60371;BME280;48550;40.588;49.684;2022-09-27T04:12:40;101777.84;;;20.06;100.00
60371;BME280;48550;40.588;49.684;2022-09-27T04:15:06;101780.59;;;20.21;100.00
60371;BME280;48550;40.588;49.684;2022-09-27T04:17:33;101785.78;;;20.27;100.00
60371;BME280;48550;40.588;49.684;2022-09-27T04:19:59;101780.38;;;20.43;100.00
60371;BME280;48550;40.588;49.684;2022-09-27T04:22:26;101787.72;;;20.47;100.00
60371;BME280;48550;40.588;49.684;2022-09-27T04:24:52;101782.28;;;20.62;100.00
60371;BME280;48550;40.588;49.684;2022-09-27T04:27:18;101778.44;;;20.74;100.00
60371;BME280;48550;40.588;49.684;2022-09-27T04:29:44;101779.81;;;20.76;100.00
60371;BME280;48550;40.588;49.684;2022-09-27T04:32:11;101779.53;;;20.88;100.00
60371;BME280;48550;40.588;49.684;2022-09-27T04:34:38;101766.97;;;20.97;100.00
60371;BME280;48550;40.588;49.684;2022-09-27T04:37:23;101774.28;;;21.12;100.00
60371;BME280;48550;40.588;49.684;2022-09-27T04:39:48;101768.28;;;21.25;100.00
60371;BME280;48550;40.588;49.684;2022-09-27T04:42:15;101772.84;;;21.40;100.00
60371;BME280;48550;40.588;49.684;2022-09-27T04:44:41;101764.59;;;21.60;100.00
60371;BME280;48550;40.588;49.684;2022-09-27T04:47:07;101754.13;;;21.77;100.00
60371;BME280;48550;40.588;49.684;2022-09-27T04:49:33;101766.03;;;21.92;100.00
60371;BME280;48550;40.588;49.684;2022-09-27T04:52:00;101775.81;;;22.08;100.00
60371;BME280;48550;40.588;49.684;2022-09-27T04:54:26;101768.88;;;22.20;100.00
60371;BME280;48550;40.588;49.684;2022-09-27T04:56:51;101761.16;;;22.33;100.00
60371;BME280;48550;40.588;49.684;2022-09-27T04:59:17;101766.88;;;22.94;100.00
60371;BME280;48550;40.588;49.684;2022-09-27T05:01:43;101767.66;;;25.48;100.00
60371;BME280;48550;40.588;49.684;2022-09-27T05:04:09;101773.66;;;28.46;76.10
60371;BME280;48550;40.588;49.684;2022-09-27T05:06:35;101776.63;;;29.64;57.56
60371;BME280;48550;40.588;49.684;2022-09-27T05:09:01;101767.91;;;30.70;49.29
60371;BME280;48550;40.588;49.684;2022-09-27T05:11:27;101777.06;;;30.94;44.27
60371;BME280;48550;40.588;49.684;2022-09-27T05:13:52;101774.28;;;31.07;41.69
60371;BME280;48550;40.588;49.684;2022-09-27T05:16:18;101779.63;;;31.73;39.78
60371;BME280;48550;40.588;49.684;2022-09-27T05:18:44;101776.81;;;32.25;37.53
60371;BME280;48550;40.588;49.684;2022-09-27T05:21:11;101777.03;;;32.20;36.86
60371;BME280;48550;40.588;49.684;2022-09-27T05:23:38;101766.19;;;31.63;37.31
60371;BME280;48550;40.588;49.684;2022-09-27T05:26:05;101779.88;;;31.19;39.52
60371;BME280;48550;40.588;49.684;2022-09-27T05:28:31;101771.44;;;31.40;38.12
60371;BME280;48550;40.588;49.684;2022-09-27T05:31:00;101759.72;;;31.71;36.47
60371;BME280;48550;40.588;49.684;2022-09-27T05:33:27;101757.25;;;32.21;36.19
60371;BME280;48550;40.588;49.684;2022-09-27T05:35:54;101756.75;;;32.04;36.12
60371;BME280;48550;40.588;49.684;2022-09-27T05:38:20;101753.59;;;30.80;37.88
60371;BME280;48550;40.588;49.684;2022-09-27T05:40:46;101752.47;;;31.05;37.91
60371;BME280;48550;40.588;49.684;2022-09-27T05:43:15;101751.16;;;31.64;36.48
60371;BME280;48550;40.588;49.684;2022-09-27T05:45:41;101750.59;;;31.58;37.43
60371;BME280;48550;40.588;49.684;2022-09-27T05:48:08;101750.94;;;31.56;37.54
60371;BME280;48550;40.588;49.684;2022-09-27T05:50:35;101752.81;;;31.04;37.42
60371;BME280;48550;40.588;49.684;2022-09-27T05:53:00;101744.13;;;30.93;37.60
60371;BME280;48550;40.588;49.684;2022-09-27T05:55:26;101745.06;;;31.46;36.85
60371;BME280;48550;40.588;49.684;2022-09-27T05:58:02;101747.47;;;31.72;35.78
60371;BME280;48550;40.588;49.684;2022-09-27T06:00:29;101742.69;;;32.84;33.95
60371;BME280;48550;40.588;49.684;2022-09-27T06:03:00;101747.44;;;32.83;33.22
60371;BME280;48550;40.588;49.684;2022-09-27T06:05:29;101743.13;;;32.86;32.76
60371;BME280;48550;40.588;49.684;2022-09-27T06:08:00;101736.78;;;32.14;34.48
60371;BME280;48550;40.588;49.684;2022-09-27T06:10:27;101732.03;;;32.42;34.41
60371;BME280;48550;40.588;49.684;2022-09-27T06:12:53;101735.78;;;32.78;33.56
60371;BME280;48550;40.588;49.684;2022-09-27T06:15:20;101734.91;;;32.46;33.03
60371;BME280;48550;40.588;49.684;2022-09-27T06:17:46;101718.66;;;32.32;33.43
60371;BME280;48550;40.588;49.684;2022-09-27T06:20:11;101721.56;;;32.08;34.94
60371;BME280;48550;40.588;49.684;2022-09-27T06:22:37;101714.63;;;31.74;34.78
60371;BME280;48550;40.588;49.684;2022-09-27T06:25:03;101701.41;;;31.18;35.11
60371;BME280;48550;40.588;49.684;2022-09-27T06:27:30;101696.78;;;30.74;36.34
60371;BME280;48550;40.588;49.684;2022-09-27T06:29:56;101691.81;;;30.67;36.47
60371;BME280;48550;40.588;49.684;2022-09-27T06:32:22;101683.25;;;31.09;35.47
60371;BME280;48550;40.588;49.684;2022-09-27T06:34:48;101688.13;;;30.99;37.11
60371;BME280;48550;40.588;49.684;2022-09-27T06:37:13;101693.41;;;31.41;35.28
60371;BME280;48550;40.588;49.684;2022-09-27T06:39:39;101690.66;;;31.05;35.92
60371;BME280;48550;40.588;49.684;2022-09-27T06:42:05;101690.53;;;31.78;34.83
60371;BME280;48550;40.588;49.684;2022-09-27T06:44:31;101685.19;;;31.45;34.92
60371;BME280;48550;40.588;49.684;2022-09-27T06:46:57;101677.13;;;30.54;36.85
60371;BME280;48550;40.588;49.684;2022-09-27T06:49:23;101669.06;;;30.86;35.86
60371;BME280;48550;40.588;49.684;2022-09-27T06:51:50;101665.34;;;31.31;35.45
60371;BME280;48550;40.588;49.684;2022-09-27T06:54:17;101661.06;;;32.01;33.26
60371;BME280;48550;40.588;49.684;2022-09-27T06:56:45;101664.69;;;32.17;33.50
60371;BME280;48550;40.588;49.684;2022-09-27T06:59:11;101666.22;;;31.87;33.57
60371;BME280;48550;40.588;49.684;2022-09-27T07:01:55;101656.88;;;32.23;32.75
60371;BME280;48550;40.588;49.684;2022-09-27T07:04:21;101656.38;;;32.65;31.40
60371;BME280;48550;40.588;49.684;2022-09-27T07:06:47;101648.44;;;32.04;32.53
60371;BME280;48550;40.588;49.684;2022-09-27T07:09:13;101650.44;;;31.63;33.06
60371;BME280;48550;40.588;49.684;2022-09-27T07:11:39;101639.75;;;30.73;34.86
60371;BME280;48550;40.588;49.684;2022-09-27T07:14:08;101633.19;;;28.74;39.65
60371;BME280;48550;40.588;49.684;2022-09-27T07:16:35;101633.28;;;27.84;42.32
60371;BME280;48550;40.588;49.684;2022-09-27T07:19:01;101625.25;;;26.96;45.84
60371;BME280;48550;40.588;49.684;2022-09-27T07:21:26;101609.09;;;26.64;45.41
60371;BME280;48550;40.588;49.684;2022-09-27T07:23:52;101618.13;;;26.47;46.82
60371;BME280;48550;40.588;49.684;2022-09-27T07:26:18;101611.00;;;26.46;46.27
60371;BME280;48550;40.588;49.684;2022-09-27T07:28:44;101599.50;;;26.44;47.86
60371;BME280;48550;40.588;49.684;2022-09-27T07:31:11;101589.16;;;26.49;49.03
60371;BME280;48550;40.588;49.684;2022-09-27T07:33:37;101577.50;;;26.52;46.86
60371;BME280;48550;40.588;49.684;2022-09-27T07:36:09;101588.97;;;26.46;46.89
60371;BME280;48550;40.588;49.684;2022-09-27T07:38:35;101580.50;;;26.34;47.18
60371;BME280;48550;40.588;49.684;2022-09-27T07:41:08;101576.00;;;26.38;46.86
60371;BME280;48550;40.588;49.684;2022-09-27T07:43:35;101565.53;;;26.66;46.60
60371;BME280;48550;40.588;49.684;2022-09-27T07:46:01;101564.03;;;26.51;47.34
60371;BME280;48550;40.588;49.684;2022-09-27T07:48:27;101574.78;;;26.30;48.14
60371;BME280;48550;40.588;49.684;2022-09-27T07:50:53;101564.19;;;26.46;47.00
60371;BME280;48550;40.588;49.684;2022-09-27T07:53:18;101554.22;;;26.27;47.13
60371;BME280;48550;40.588;49.684;2022-09-27T07:55:51;101553.81;;;26.43;46.25
60371;BME280;48550;40.588;49.684;2022-09-27T07:58:18;101554.66;;;26.52;47.54
60371;BME280;48550;40.588;49.684;2022-09-27T08:00:44;101556.44;;;26.56;47.40
60371;BME280;48550;40.588;49.684;2022-09-27T08:03:12;101555.47;;;26.52;48.70
60371;BME280;48550;40.588;49.684;2022-09-27T08:05:46;101551.09;;;26.60;47.88
60371;BME280;48550;40.588;49.684;2022-09-27T08:08:13;101547.41;;;26.65;48.29
60371;BME280;48550;40.588;49.684;2022-09-27T08:10:39;101541.06;;;26.55;48.94
60371;BME280;48550;40.588;49.684;2022-09-27T08:13:09;101533.63;;;26.56;49.19
60371;BME280;48550;40.588;49.684;2022-09-27T08:15:35;101539.78;;;26.62;48.27
60371;BME280;48550;40.588;49.684;2022-09-27T08:18:04;101528.72;;;26.36;48.46
60371;BME280;48550;40.588;49.684;2022-09-27T08:20:30;101531.31;;;26.41;47.50
60371;BME280;48550;40.588;49.684;2022-09-27T08:22:56;101524.84;;;26.45;48.24
60371;BME280;48550;40.588;49.684;2022-09-27T08:25:22;101508.50;;;26.49;47.86
60371;BME280;48550;40.588;49.684;2022-09-27T08:28:02;101508.69;;;26.61;48.51
60371;BME280;48550;40.588;49.684;2022-09-27T08:30:29;101517.59;;;26.75;45.55
60371;BME280;48550;40.588;49.684;2022-09-27T08:32:57;101510.44;;;26.57;46.71
60371;BME280;48550;40.588;49.684;2022-09-27T08:35:24;101499.44;;;26.57;46.29
60371;BME280;48550;40.588;49.684;2022-09-27T08:37:56;101505.91;;;26.52;45.89
60371;BME280;48550;40.588;49.684;2022-09-27T08:41:13;101498.00;;;26.68;45.93
60371;BME280;48550;40.588;49.684;2022-09-27T08:46:23;101497.34;;;26.63;49.64
60371;BME280;48550;40.588;49.684;2022-09-27T08:49:18;101502.34;;;26.60;50.54
60371;BME280;48550;40.588;49.684;2022-09-27T08:51:43;101497.03;;;26.64;49.85
60371;BME280;48550;40.588;49.684;2022-09-27T08:54:15;101490.69;;;26.64;50.04
60371;BME280;48550;40.588;49.684;2022-09-27T08:56:43;101490.72;;;26.72;48.94
60371;BME280;48550;40.588;49.684;2022-09-27T08:59:24;101486.00;;;26.64;49.69
60371;BME280;48550;40.588;49.684;2022-09-27T09:01:53;101487.78;;;26.60;50.37
60371;BME280;48550;40.588;49.684;2022-09-27T09:04:31;101491.16;;;26.40;52.03
60371;BME280;48550;40.588;49.684;2022-09-27T09:26:55;101483.56;;;26.45;54.97
60371;BME280;48550;40.588;49.684;2022-09-27T09:35:42;101474.00;;;26.43;54.79
60371;BME280;48550;40.588;49.684;2022-09-27T09:38:15;101463.63;;;26.40;55.22
60371;BME280;48550;40.588;49.684;2022-09-27T09:40:55;101462.97;;;26.43;56.09
60371;BME280;48550;40.588;49.684;2022-09-27T09:43:29;101458.06;;;26.31;56.21
60371;BME280;48550;40.588;49.684;2022-09-27T09:46:21;101457.22;;;26.13;55.74
60371;BME280;48550;40.588;49.684;2022-09-27T09:51:43;101437.09;;;25.95;58.15
60371;BME280;48550;40.588;49.684;2022-09-27T09:54:18;101427.69;;;25.88;59.00
60371;BME280;48550;40.588;49.684;2022-09-27T09:56:58;101432.38;;;25.96;59.60
60371;BME280;48550;40.588;49.684;2022-09-27T09:59:31;101420.06;;;25.85;61.13
60371;BME280;48550;40.588;49.684;2022-09-27T10:02:34;101417.34;;;25.93;60.70
60371;BME280;48550;40.588;49.684;2022-09-27T10:04:59;101414.28;;;25.95;60.75
60371;BME280;48550;40.588;49.684;2022-09-27T10:07:26;101418.06;;;26.08;60.40
60371;BME280;48550;40.588;49.684;2022-09-27T10:09:55;101408.00;;;26.03;59.97
60371;BME280;48550;40.588;49.684;2022-09-27T10:12:22;101411.59;;;26.12;59.37
60371;BME280;48550;40.588;49.684;2022-09-27T10:14:48;101405.91;;;26.09;59.22
60371;BME280;48550;40.588;49.684;2022-09-27T10:17:19;101404.13;;;26.04;60.76
60371;BME280;48550;40.588;49.684;2022-09-27T10:19:46;101391.19;;;26.05;60.18
60371;BME280;48550;40.588;49.684;2022-09-27T10:22:35;101397.19;;;26.15;60.10
60371;BME280;48550;40.588;49.684;2022-09-27T10:25:05;101386.00;;;26.03;60.55
60371;BME280;48550;40.588;49.684;2022-09-27T10:27:58;101388.38;;;25.96;60.28
60371;BME280;48550;40.588;49.684;2022-09-27T10:30:33;101382.06;;;25.95;60.48
60371;BME280;48550;40.588;49.684;2022-09-27T10:33:03;101384.34;;;25.93;60.95
60371;BME280;48550;40.588;49.684;2022-09-27T10:35:36;101379.81;;;25.97;61.32
60371;BME280;48550;40.588;49.684;2022-09-27T10:40:41;101371.06;;;25.87;61.46
60371;BME280;48550;40.588;49.684;2022-09-27T10:43:30;101363.28;;;25.80;62.20
60371;BME280;48550;40.588;49.684;2022-09-27T10:48:36;101357.09;;;25.75;61.87
60371;BME280;48550;40.588;49.684;2022-09-27T10:51:05;101354.19;;;25.71;62.09
60371;BME280;48550;40.588;49.684;2022-09-27T10:53:34;101349.34;;;25.77;64.19
60371;BME280;48550;40.588;49.684;2022-09-27T10:56:01;101349.53;;;25.89;62.42
60371;BME280;48550;40.588;49.684;2022-09-27T10:58:31;101340.00;;;25.86;62.93
60371;BME280;48550;40.588;49.684;2022-09-27T11:01:03;101343.88;;;25.85;63.03
60371;BME280;48550;40.588;49.684;2022-09-27T11:03:32;101344.63;;;25.69;64.09
60371;BME280;48550;40.588;49.684;2022-09-27T11:06:28;101330.91;;;25.69;65.33
60371;BME280;48550;40.588;49.684;2022-09-27T11:08:54;101338.66;;;25.75;65.27
60371;BME280;48550;40.588;49.684;2022-09-27T11:11:34;101332.19;;;25.71;66.94
60371;BME280;48550;40.588;49.684;2022-09-27T11:14:05;101323.63;;;25.73;68.76
60371;BME280;48550;40.588;49.684;2022-09-27T11:17:18;101329.41;;;25.62;72.01
60371;BME280;48550;40.588;49.684;2022-09-27T11:19:51;101323.09;;;25.62;73.09
60371;BME280;48550;40.588;49.684;2022-09-27T11:22:43;101329.13;;;25.73;73.13
60371;BME280;48550;40.588;49.684;2022-09-27T11:28:54;101321.44;;;25.52;75.85
60371;BME280;48550;40.588;49.684;2022-09-27T11:32:09;101315.09;;;25.43;78.94
60371;BME280;48550;40.588;49.684;2022-09-27T11:35:03;101318.97;;;25.42;79.63
60371;BME280;48550;40.588;49.684;2022-09-27T11:56:17;101306.03;;;25.34;85.41
60371;BME280;48550;40.588;49.684;2022-09-27T11:58:58;101312.66;;;25.33;87.37
60371;BME280;48550;40.588;49.684;2022-09-27T12:09:38;101317.81;;;25.03;96.57
60371;BME280;48550;40.588;49.684;2022-09-27T12:12:23;101309.91;;;25.02;98.79
60371;BME280;48550;40.588;49.684;2022-09-27T12:14:57;101307.31;;;25.06;95.94
60371;BME280;48550;40.588;49.684;2022-09-27T12:17:35;101317.81;;;25.03;99.51
60371;BME280;48550;40.588;49.684;2022-09-27T12:20:09;101315.91;;;25.13;98.26
60371;BME280;48550;40.588;49.684;2022-09-27T12:25:19;101322.38;;;25.08;99.98
60371;BME280;48550;40.588;49.684;2022-09-27T12:27:48;101311.06;;;25.10;100.00
60371;BME280;48550;40.588;49.684;2022-09-27T12:30:16;101308.13;;;25.06;100.00
60371;BME280;48550;40.588;49.684;2022-09-27T12:35:32;101313.06;;;24.95;100.00
60371;BME280;48550;40.588;49.684;2022-09-27T12:38:59;101326.06;;;24.81;100.00
60371;BME280;48550;40.588;49.684;2022-09-27T12:41:20;101316.69;;;24.82;100.00
60371;BME280;48550;40.588;49.684;2022-09-27T12:43:48;101325.25;;;24.81;100.00
60371;BME280;48550;40.588;49.684;2022-09-27T12:52:03;101333.00;;;24.79;100.00
60371;BME280;48550;40.588;49.684;2022-09-27T12:54:46;101329.25;;;24.75;100.00
60371;BME280;48550;40.588;49.684;2022-09-27T12:57:33;101328.69;;;24.64;100.00
60371;BME280;48550;40.588;49.684;2022-09-27T13:10:58;101331.66;;;24.31;100.00
60371;BME280;48550;40.588;49.684;2022-09-27T13:13:32;101330.72;;;24.22;100.00
60371;BME280;48550;40.588;49.684;2022-09-27T13:16:00;101342.31;;;24.19;100.00
60371;BME280;48550;40.588;49.684;2022-09-27T13:21:04;101334.53;;;24.13;100.00
60371;BME280;48550;40.588;49.684;2022-09-27T13:26:01;101337.78;;;24.01;100.00
60371;BME280;48550;40.588;49.684;2022-09-27T13:30:57;101327.56;;;23.93;100.00
60371;BME280;48550;40.588;49.684;2022-09-27T13:33:50;101328.97;;;23.90;100.00
60371;BME280;48550;40.588;49.684;2022-09-27T13:41:53;101316.09;;;23.63;100.00
60371;BME280;48550;40.588;49.684;2022-09-27T13:45:13;101326.66;;;23.56;100.00
60371;BME280;48550;40.588;49.684;2022-09-27T13:47:32;101321.56;;;23.50;100.00
60371;BME280;48550;40.588;49.684;2022-09-27T13:52:44;101326.94;;;23.41;100.00
60371;BME280;48550;40.588;49.684;2022-09-27T13:58:29;101327.75;;;23.28;100.00
60371;BME280;48550;40.588;49.684;2022-09-27T14:00:59;101333.81;;;23.25;100.00
60371;BME280;48550;40.588;49.684;2022-09-27T14:03:54;101335.03;;;23.19;100.00
60371;BME280;48550;40.588;49.684;2022-09-27T14:06:25;101336.25;;;23.12;100.00
60371;BME280;48550;40.588;49.684;2022-09-27T14:08:57;101325.69;;;23.06;100.00
60371;BME280;48550;40.588;49.684;2022-09-27T14:11:31;101330.91;;;23.02;100.00
60371;BME280;48550;40.588;49.684;2022-09-27T14:13:58;101328.06;;;22.94;100.00
60371;BME280;48550;40.588;49.684;2022-09-27T14:16:29;101323.78;;;22.88;100.00
60371;BME280;48550;40.588;49.684;2022-09-27T14:18:57;101317.00;;;22.85;100.00
60371;BME280;48550;40.588;49.684;2022-09-27T14:21:38;101322.56;;;22.80;100.00
60371;BME280;48550;40.588;49.684;2022-09-27T14:24:24;101325.88;;;22.77;100.00
60371;BME280;48550;40.588;49.684;2022-09-27T14:29:42;101329.09;;;22.79;100.00
60371;BME280;48550;40.588;49.684;2022-09-27T14:32:17;101326.75;;;22.72;100.00
60371;BME280;48550;40.588;49.684;2022-09-27T14:34:44;101327.75;;;22.63;100.00
60371;BME280;48550;40.588;49.684;2022-09-27T14:37:22;101334.50;;;22.51;100.00
60371;BME280;48550;40.588;49.684;2022-09-27T14:39:57;101332.94;;;22.45;100.00
60371;BME280;48550;40.588;49.684;2022-09-27T14:42:25;101331.84;;;22.46;100.00
60371;BME280;48550;40.588;49.684;2022-09-27T14:44:55;101339.53;;;22.44;100.00
60371;BME280;48550;40.588;49.684;2022-09-27T14:47:26;101347.50;;;22.41;100.00
60371;BME280;48550;40.588;49.684;2022-09-27T14:49:55;101344.84;;;22.36;100.00
60371;BME280;48550;40.588;49.684;2022-09-27T14:52:23;101355.56;;;22.32;100.00
60371;BME280;48550;40.588;49.684;2022-09-27T14:55:11;101353.66;;;22.33;100.00
60371;BME280;48550;40.588;49.684;2022-09-27T14:57:43;101348.19;;;22.33;100.00
60371;BME280;48550;40.588;49.684;2022-09-27T15:00:27;101356.09;;;22.34;100.00
60371;BME280;48550;40.588;49.684;2022-09-27T15:02:58;101357.78;;;22.30;100.00
60371;BME280;48550;40.588;49.684;2022-09-27T15:05:27;101363.09;;;22.22;100.00
60371;BME280;48550;40.588;49.684;2022-09-27T15:07:53;101364.84;;;22.12;100.00
60371;BME280;48550;40.588;49.684;2022-09-27T15:10:25;101368.97;;;22.10;100.00
60371;BME280;48550;40.588;49.684;2022-09-27T15:12:54;101370.69;;;22.06;100.00
60371;BME280;48550;40.588;49.684;2022-09-27T15:15:25;101373.63;;;22.09;100.00
60371;BME280;48550;40.588;49.684;2022-09-27T15:17:52;101378.28;;;22.09;100.00
60371;BME280;48550;40.588;49.684;2022-09-27T15:22:55;101383.88;;;21.99;100.00
60371;BME280;48550;40.588;49.684;2022-09-27T15:28:02;101385.31;;;21.91;100.00
60371;BME280;48550;40.588;49.684;2022-09-27T15:30:37;101381.53;;;21.87;100.00
60371;BME280;48550;40.588;49.684;2022-09-27T15:33:05;101387.00;;;21.87;100.00